Time;durP1;ratioP1;P1;durP2;ratioP2;P2;SDS_P1;SDS_P2;PMS_P1;PMS_P2;Temp;Humidity;BMP_temperature;BMP_pressure;BME280_temperature;BME280_humidity;BME280_pressure;Samples;Min_cycle;Max_cycle;Signal;HPM_P1;HPM_P2
2021/11/27 12:06:29;;;;;;;15.20;6.75;;;3.80;99.90;;;;;;5070593;28;20539;-82
2021/11/27 12:08:57;;;;;;;12.65;5.03;;;3.90;99.90;;;;;;5070502;28;20192;-83
2021/11/27 12:11:53;;;;;;;11.25;6.18;;;4.60;99.90;;;;;;5070548;28;20512;-83
2021/11/27 12:14:21;;;;;;;11.77;7.10;;;4.20;99.90;;;;;;5069235;28;20164;-83
2021/11/27 12:17:15;;;;;;;10.45;4.93;;;4.40;99.90;;;;;;5070412;28;20298;-83
2021/11/27 12:19:45;;;;;;;8.68;4.60;;;4.40;99.90;;;;;;5070368;28;20176;-81
2021/11/27 12:22:20;;;;;;;10.35;5.32;;;4.50;99.90;;;;;;5069198;28;20259;-83
2021/11/27 12:25:10;;;;;;;16.00;4.45;;;5.00;99.90;;;;;;5070291;28;20196;-83
2021/11/27 12:27:54;;;;;;;9.60;4.35;;;4.40;99.90;;;;;;5070253;28;20247;-83
2021/11/27 12:30:20;;;;;;;9.63;5.25;;;4.40;99.90;;;;;;5070268;28;20248;-83
2021/11/27 12:32:46;;;;;;;19.58;5.65;;;4.30;99.90;;;;;;5068829;28;20199;-83
2021/11/27 12:35:28;;;;;;;8.50;4.13;;;3.30;99.90;;;;;;5070082;28;20251;-83
2021/11/27 12:38:06;;;;;;;13.82;3.45;;;4.20;99.90;;;;;;5070014;28;20175;-83
2021/11/27 12:40:45;;;;;;;11.25;3.42;;;4.20;99.90;;;;;;5068679;28;20168;-82
2021/11/27 12:43:17;;;;;;;10.30;3.70;;;4.10;99.90;;;;;;5069889;28;20204;-83
2021/11/27 12:45:48;;;;;;;5.40;3.92;;;4.00;99.90;;;;;;5069807;28;20287;-83
2021/11/27 12:48:29;;;;;;;8.75;4.40;;;4.00;99.90;;;;;;5069951;28;20165;-83
2021/11/27 12:51:25;;;;;;;10.70;5.05;;;4.00;99.90;;;;;;5069765;28;20251;-83
2021/11/27 12:54:00;;;;;;;4.93;4.38;;;4.00;99.90;;;;;;5069702;28;20641;-83
2021/11/27 12:56:26;;;;;;;5.97;3.28;;;4.10;99.90;;;;;;5069595;28;20168;-83
2021/11/27 12:58:51;;;;;;;13.13;4.05;;;4.20;99.90;;;;;;5068519;28;20314;-83
2021/11/27 13:01:43;;;;;;;3.75;3.45;;;4.30;99.90;;;;;;5069589;28;20172;-83
2021/11/27 13:04:09;;;;;;;7.45;3.00;;;4.20;99.90;;;;;;5065883;28;20242;-83
2021/11/27 13:06:38;;;;;;;4.22;2.92;;;4.10;99.90;;;;;;5068077;28;20179;-83
2021/11/27 13:09:16;;;;;;;6.05;3.25;;;4.00;99.90;;;;;;5068129;28;20729;-83
2021/11/27 13:11:45;;;;;;;5.75;2.95;;;3.90;99.90;;;;;;5069416;28;20168;-83
2021/11/27 13:14:31;;;;;;;10.40;2.88;;;3.80;99.90;;;;;;5069276;28;20575;-82
2021/11/27 13:17:11;;;;;;;7.72;3.10;;;3.80;99.90;;;;;;5058977;28;20512;-83
2021/11/27 13:19:39;;;;;;;6.78;3.28;;;3.70;99.90;;;;;;5055996;28;20247;-83
2021/11/27 13:22:08;;;;;;;3.53;2.80;;;3.70;99.90;;;;;;5055956;28;20239;-83
2021/11/27 13:24:36;;;;;;;5.43;2.83;;;4.00;99.90;;;;;;5055824;28;20185;-83
2021/11/27 13:27:03;;;;;;;6.45;3.35;;;4.70;99.90;;;;;;5055794;28;20164;-83
2021/11/27 13:29:29;;;;;;;7.20;3.13;;;4.00;99.90;;;;;;5055783;28;20192;-83
2021/11/27 13:31:55;;;;;;;9.23;3.15;;;4.10;99.90;;;;;;5055720;28;20219;-83
2021/11/27 13:34:22;;;;;;;6.22;3.15;;;4.30;99.90;;;;;;5054450;28;20173;-83
2021/11/27 13:36:54;;;;;;;5.90;2.40;;;4.50;99.90;;;;;;5055789;28;20176;-83
2021/11/27 13:39:33;;;;;;;3.50;2.58;;;4.60;99.90;;;;;;5055559;28;20696;-83
2021/11/27 13:42:16;;;;;;;5.05;2.90;;;4.70;99.90;;;;;;5055538;28;20294;-83
2021/11/27 13:44:51;;;;;;;11.23;3.00;;;4.80;99.90;;;;;;5055425;28;20200;-82
2021/11/27 13:47:22;;;;;;;13.88;3.25;;;4.90;99.90;;;;;;5055527;28;20163;-83
2021/11/27 13:49:52;;;;;;;7.30;2.70;;;4.80;99.90;;;;;;5055399;28;20165;-82
2021/11/27 13:52:30;;;;;;;3.20;2.90;;;4.80;99.90;;;;;;5054188;28;20169;-82
2021/11/27 13:54:59;;;;;;;10.38;2.90;;;4.90;99.90;;;;;;5055372;28;20532;-82
2021/11/27 13:57:26;;;;;;;4.85;2.75;;;5.10;99.90;;;;;;5054092;28;20268;-82
2021/11/27 13:59:53;;;;;;;5.68;3.17;;;5.90;99.90;;;;;;5055222;28;20173;-82
2021/11/27 14:02:20;;;;;;;4.13;3.63;;;5.30;99.90;;;;;;5055129;28;20169;-82
2021/11/27 14:04:55;;;;;;;8.60;3.40;;;5.40;99.90;;;;;;5054870;28;20225;-82
2021/11/27 14:07:21;;;;;;;8.73;3.40;;;5.80;99.90;;;;;;5055057;28;20191;-83
2021/11/27 14:09:57;;;;;;;5.88;2.80;;;5.50;99.90;;;;;;5053774;28;20169;-82
2021/11/27 14:12:41;;;;;;;7.93;3.00;;;5.50;99.90;;;;;;5053807;28;20168;-82
2021/11/27 14:15:23;;;;;;;6.45;3.10;;;5.50;99.90;;;;;;5055014;28;20630;-82
2021/11/27 14:18:12;;;;;;;5.65;2.95;;;5.50;99.90;;;;;;5054925;28;20177;-82
2021/11/27 14:21:00;;;;;;;4.38;2.72;;;5.40;99.90;;;;;;5054831;28;20206;-82
2021/11/27 14:23:31;;;;;;;12.15;3.00;;;5.50;99.90;;;;;;5055440;28;20295;-81
2021/11/27 14:26:00;;;;;;;11.85;2.80;;;5.40;99.90;;;;;;5053846;28;20204;-82
2021/11/27 14:28:25;;;;;;;7.25;2.63;;;5.30;99.90;;;;;;5053266;28;20166;-82
2021/11/27 14:30:51;;;;;;;3.00;2.63;;;5.30;99.90;;;;;;5053024;28;20179;-82
2021/11/27 14:33:29;;;;;;;10.40;3.20;;;5.20;99.90;;;;;;5054506;28;20240;-82
2021/11/27 14:36:05;;;;;;;7.63;3.00;;;5.00;99.90;;;;;;5054245;28;20291;-82
2021/11/27 14:38:34;;;;;;;6.05;3.45;;;4.90;99.90;;;;;;5048594;28;20250;-82
2021/11/27 14:41:02;;;;;;;7.68;3.50;;;4.80;99.90;;;;;;5054349;28;20546;-82
2021/11/27 14:43:27;;;;;;;9.05;3.20;;;4.70;99.90;;;;;;5054354;28;20618;-82
2021/11/27 14:45:53;;;;;;;10.65;3.80;;;5.40;99.90;;;;;;5052829;28;20211;-82
2021/11/27 14:48:32;;;;;;;13.50;3.80;;;4.70;99.90;;;;;;5054307;28;20173;-82
2021/11/27 14:51:02;;;;;;;12.65;5.40;;;4.20;99.90;;;;;;5054577;28;20172;-82
2021/11/27 14:53:40;;;;;;;13.48;4.85;;;4.10;99.90;;;;;;5053790;28;20169;-82
2021/11/27 14:56:07;;;;;;;8.30;4.50;;;3.90;99.90;;;;;;5052884;28;20569;-82
2021/11/27 14:58:33;;;;;;;5.88;4.13;;;3.80;99.90;;;;;;5054030;28;20177;-82
2021/11/27 15:01:08;;;;;;;8.85;4.45;;;3.70;99.90;;;;;;5054069;28;20260;-82
2021/11/27 15:03:40;;;;;;;14.43;5.50;;;3.50;99.90;;;;;;5052787;28;20661;-82
